Time;durP1;ratioP1;P1;durP2;ratioP2;P2;SDS_P1;SDS_P2;PMS_P1;PMS_P2;Temp;Humidity;BMP_temperature;BMP_pressure;BME280_temperature;BME280_humidity;BME280_pressure;Samples;Min_cycle;Max_cycle;Signal;HPM_P1;HPM_P2
2021/06/09 00:00:38;;;;;;;5.10;1.80;;;;;;;21.42;40.91;100679.69;5029046;28;20056;-66
2021/06/09 00:03:05;;;;;;;2.85;1.60;;;;;;;21.31;41.04;100676.44;5016041;28;20136;-66
2021/06/09 00:05:32;;;;;;;5.75;1.90;;;;;;;21.25;41.18;100682.00;5028565;28;20048;-66
2021/06/09 00:08:00;;;;;;;5.53;2.08;;;;;;;21.07;41.78;100682.47;5028854;28;20273;-66
2021/06/09 00:10:28;;;;;;;4.70;2.22;;;;;;;21.16;41.80;100681.38;5027363;28;20140;-66
2021/06/09 00:12:55;;;;;;;4.53;1.83;;;;;;;21.21;41.43;100679.44;5028038;28;20069;-66
2021/06/09 00:15:22;;;;;;;5.07;1.75;;;;;;;21.17;41.54;100681.34;5028725;28;20083;-66
2021/06/09 00:17:49;;;;;;;5.03;2.03;;;;;;;21.16;41.53;100687.63;5028018;28;20052;-67
2021/06/09 00:20:19;;;;;;;4.45;2.03;;;;;;;21.09;41.42;100681.50;5027573;28;20128;-66
2021/06/09 00:22:46;;;;;;;4.97;2.33;;;;;;;21.05;41.80;100681.66;5028524;28;20037;-66
2021/06/09 00:25:16;;;;;;;4.95;2.00;;;;;;;21.05;41.69;100682.53;5028236;28;20065;-66
2021/06/09 00:27:46;;;;;;;6.32;2.10;;;;;;;20.83;42.23;100683.19;5027942;28;20103;-66
2021/06/09 00:30:17;;;;;;;7.72;2.33;;;;;;;20.86;42.19;100677.75;5028457;28;20612;-66
2021/06/09 00:32:45;;;;;;;5.35;1.88;;;;;;;20.85;41.98;100676.84;5028261;28;20402;-66
2021/06/09 00:35:13;;;;;;;5.43;1.70;;;;;;;20.92;42.08;100666.81;5028441;28;20576;-66
2021/06/09 00:37:40;;;;;;;4.47;2.20;;;;;;;20.84;42.23;100664.34;5026783;28;20523;-66
2021/06/09 00:40:10;;;;;;;4.70;1.92;;;;;;;20.65;42.66;100673.84;5029528;28;20464;-67
2021/06/09 00:42:39;;;;;;;4.35;1.83;;;;;;;20.57;43.07;100670.47;5028114;28;20033;-66
2021/06/09 00:45:08;;;;;;;4.90;1.65;;;;;;;20.57;42.98;100662.44;5028781;28;20056;-67
2021/06/09 00:47:35;;;;;;;5.07;2.08;;;;;;;20.61;42.89;100661.44;5027974;28;20505;-67
2021/06/09 00:50:02;;;;;;;2.67;1.45;;;;;;;20.72;42.44;100656.66;5028879;28;20033;-66
2021/06/09 00:52:30;;;;;;;5.05;2.10;;;;;;;20.82;42.31;100657.25;5029745;28;20604;-66
2021/06/09 00:54:57;;;;;;;3.90;1.90;;;;;;;20.79;42.29;100654.69;5032028;28;20127;-66
2021/06/09 00:57:26;;;;;;;6.53;1.90;;;;;;;20.75;42.48;100652.97;5029860;28;20041;-66
2021/06/09 00:59:55;;;;;;;3.60;1.80;;;;;;;20.71;42.63;100656.69;5030426;28;20121;-66
2021/06/09 01:02:23;;;;;;;4.88;1.80;;;;;;;20.69;42.62;100649.56;5029050;28;20053;-66
2021/06/09 01:04:50;;;;;;;4.13;1.60;;;;;;;20.51;42.70;100646.50;5030234;28;20537;-66
2021/06/09 01:07:17;;;;;;;7.63;2.17;;;;;;;20.52;42.97;100649.16;5031293;28;20068;-66
2021/06/09 01:09:44;;;;;;;3.78;1.70;;;;;;;20.52;42.76;100646.47;5030063;28;20037;-66
2021/06/09 01:12:12;;;;;;;4.15;1.70;;;;;;;20.55;42.75;100648.16;5031804;28;20394;-66
2021/06/09 01:14:39;;;;;;;2.47;1.77;;;;;;;20.58;42.75;100645.41;5031370;28;20034;-66
2021/06/09 01:17:08;;;;;;;6.53;2.13;;;;;;;20.65;42.50;100645.22;5031720;28;20041;-66
2021/06/09 01:19:36;;;;;;;4.28;1.90;;;;;;;20.66;42.34;100638.94;5031810;28;20063;-67
2021/06/09 01:22:05;;;;;;;3.75;1.75;;;;;;;20.65;42.43;100647.00;5031149;28;20503;-67
2021/06/09 01:24:32;;;;;;;6.72;2.15;;;;;;;20.43;42.92;100645.81;5030373;28;20144;-66
2021/06/09 01:26:59;;;;;;;7.32;2.20;;;;;;;20.31;43.19;100641.63;5031419;28;20509;-66
2021/06/09 01:29:27;;;;;;;3.67;1.80;;;;;;;20.38;43.16;100645.94;5031057;28;20041;-66
2021/06/09 01:31:54;;;;;;;3.88;1.90;;;;;;;20.48;42.96;100649.28;5030359;28;20105;-67
2021/06/09 01:34:21;;;;;;;6.53;1.83;;;;;;;20.58;42.87;100646.28;5031566;28;20045;-67
2021/06/09 01:36:48;;;;;;;5.25;2.08;;;;;;;20.54;42.61;100652.69;5030572;28;20436;-66
2021/06/09 01:39:19;;;;;;;4.47;2.05;;;;;;;20.42;43.10;100647.63;5031387;28;20124;-66
2021/06/09 01:41:48;;;;;;;3.42;2.08;;;;;;;20.38;43.10;100645.06;5030468;28;20117;-66
2021/06/09 01:44:15;;;;;;;5.38;1.75;;;;;;;20.42;42.88;100638.69;5030621;28;20045;-66
2021/06/09 01:46:42;;;;;;;4.55;2.10;;;;;;;20.43;42.98;100638.66;5030502;28;20049;-67
2021/06/09 01:49:10;;;;;;;6.32;2.00;;;;;;;20.45;42.94;100641.31;5030767;28;20058;-66
2021/06/09 01:51:38;;;;;;;6.63;2.10;;;;;;;20.44;42.99;100640.44;5030451;28;20570;-66
2021/06/09 01:54:07;;;;;;;3.00;1.75;;;;;;;20.37;43.04;100641.50;5030957;28;20081;-67
2021/06/09 01:56:37;;;;;;;3.63;2.00;;;;;;;20.34;43.15;100636.25;5030658;28;20044;-67
2021/06/09 01:59:11;;;;;;;4.50;2.08;;;;;;;20.33;43.22;100636.28;5030334;28;20477;-66
2021/06/09 02:01:39;;;;;;;4.05;2.10;;;;;;;20.14;43.65;100641.19;5030426;28;20558;-66
2021/06/09 02:04:08;;;;;;;6.35;2.00;;;;;;;20.12;43.75;100635.88;5029774;28;20049;-66
2021/06/09 02:06:39;;;;;;;3.58;1.63;;;;;;;20.15;43.54;100637.59;5030351;28;20124;-66
2021/06/09 02:09:06;;;;;;;4.53;2.25;;;;;;;20.15;43.67;100635.78;5030486;28;20045;-66
2021/06/09 02:11:33;;;;;;;4.72;2.22;;;;;;;20.07;43.94;100643.16;5030375;28;20145;-67
2021/06/09 02:14:02;;;;;;;4.18;1.95;;;;;;;20.13;43.80;100637.63;5029478;28;20136;-66
2021/06/09 02:16:34;;;;;;;4.05;2.22;;;;;;;20.19;43.80;100641.97;5030602;28;20075;-66
2021/06/09 02:19:02;;;;;;;4.00;2.10;;;;;;;20.19;43.73;100634.81;5030040;28;20074;-66
2021/06/09 02:21:29;;;;;;;6.13;2.00;;;;;;;20.10;43.74;100648.41;5030592;28;20128;-67
2021/06/09 02:23:57;;;;;;;8.80;2.38;;;;;;;19.79;44.39;100648.31;5030447;28;20138;-66
2021/06/09 02:26:25;;;;;;;6.63;1.80;;;;;;;19.74;44.62;100650.22;5029710;28;20113;-67
2021/06/09 02:28:52;;;;;;;3.03;1.85;;;;;;;19.73;44.62;100648.47;5015174;28;20036;-67
2021/06/09 02:31:21;;;;;;;3.53;1.92;;;;;;;19.81;44.59;100646.47;5030061;28;20045;-66
2021/06/09 02:33:48;;;;;;;6.80;2.03;;;;;;;19.84;44.58;100657.09;5029532;28;20404;-66
2021/06/09 02:36:15;;;;;;;5.57;2.00;;;;;;;19.94;44.74;100648.88;5029928;28;20048;-67
2021/06/09 02:38:43;;;;;;;6.80;2.10;;;;;;;19.99;44.76;100657.66;5030018;28;20061;-66
2021/06/09 02:41:11;;;;;;;4.03;2.10;;;;;;;19.92;44.87;100656.94;5029593;28;20037;-66
2021/06/09 02:43:38;;;;;;;6.18;2.42;;;;;;;19.85;45.16;100658.88;5029910;28;20041;-66
2021/06/09 02:46:13;;;;;;;5.57;2.08;;;;;;;19.81;45.24;100656.31;5029645;28;20046;-67
2021/06/09 02:48:45;;;;;;;5.00;2.10;;;;;;;19.84;45.10;100648.19;5029184;28;20467;-66
2021/06/09 02:51:17;;;;;;;4.95;2.40;;;;;;;19.95;45.17;100656.88;5029001;28;20483;-66
2021/06/09 02:53:48;;;;;;;5.47;2.30;;;;;;;19.93;45.57;100656.03;5030263;28;20086;-67
2021/06/09 02:56:24;;;;;;;4.05;2.33;;;;;;;19.94;45.94;100656.91;5028966;28;20122;-66
2021/06/09 02:59:04;;;;;;;8.93;2.10;;;;;;;19.90;46.34;100654.28;5014410;28;20725;-66
2021/06/09 03:01:34;;;;;;;8.40;2.35;;;;;;;19.83;46.26;100655.34;5028877;28;20038;-67
2021/06/09 03:04:11;;;;;;;7.38;2.22;;;;;;;19.70;46.83;100667.25;5029431;28;20567;-66
2021/06/09 03:06:44;;;;;;;7.35;2.22;;;;;;;19.56;47.21;100661.34;5029629;28;20095;-66
2021/06/09 03:09:19;;;;;;;6.85;3.17;;;;;;;19.70;47.05;100674.41;5028986;28;20045;-66
2021/06/09 03:11:52;;;;;;;3.45;2.15;;;;;;;19.68;47.33;100670.91;5029305;28;20038;-66
2021/06/09 03:17:11;;;;;;;6.30;2.60;;;;;;;19.75;47.65;100668.06;5016446;28;20191;-66
2021/06/09 03:19:48;;;;;;;4.55;2.17;;;;;;;19.65;48.22;100665.63;5029519;28;20362;-65
2021/06/09 03:22:28;;;;;;;7.50;2.40;;;;;;;19.73;48.22;100664.53;5028278;28;20132;-66
2021/06/09 03:24:57;;;;;;;3.05;2.25;;;;;;;19.69;48.27;100657.47;5029051;28;20034;-66
2021/06/09 03:27:36;;;;;;;7.43;2.53;;;;;;;19.82;48.10;100664.28;5029040;28;20053;-66
2021/06/09 03:30:06;;;;;;;9.20;3.13;;;;;;;20.02;48.13;100665.63;5028335;28;20057;-66
2021/06/09 03:32:38;;;;;;;4.15;2.90;;;;;;;20.13;48.21;100664.44;5009896;28;20041;-66
2021/06/09 03:35:15;;;;;;;9.05;2.72;;;;;;;20.31;48.49;100663.09;5009680;28;20057;-66
2021/06/09 03:37:46;;;;;;;8.30;3.03;;;;;;;20.42;48.44;100666.38;5009978;28;20045;-67
2021/06/09 03:40:17;;;;;;;5.53;2.50;;;;;;;20.59;48.62;100664.16;5009081;28;20069;-67
2021/06/09 03:42:48;;;;;;;7.90;2.50;;;;;;;20.54;49.08;100666.09;5024956;28;20045;-66
2021/06/09 03:45:17;;;;;;;10.18;2.78;;;;;;;20.60;49.50;100667.72;5028486;28;20052;-66
2021/06/09 03:47:45;;;;;;;6.35;2.25;;;;;;;20.81;49.16;100664.44;5029060;28;20037;-66
2021/06/09 03:50:17;;;;;;;10.55;2.53;;;;;;;21.05;49.02;100669.13;5028522;28;20132;-67
2021/06/09 03:52:47;;;;;;;7.60;2.45;;;;;;;21.18;48.72;100658.06;5028951;28;20046;-67
2021/06/09 03:55:17;;;;;;;4.75;2.65;;;;;;;21.29;48.84;100661.28;5028928;28;20117;-66
2021/06/09 03:57:46;;;;;;;6.10;3.03;;;;;;;21.36;49.21;100661.06;5027772;28;20041;-67
2021/06/09 04:00:14;;;;;;;8.07;3.30;;;;;;;21.64;49.35;100654.84;5024195;28;20042;-67
2021/06/09 04:02:44;;;;;;;5.28;2.60;;;;;;;21.81;48.83;100657.84;5028498;28;20378;-66
2021/06/09 04:05:12;;;;;;;6.65;2.75;;;;;;;21.86;49.33;100659.47;5028509;28;20443;-67
2021/06/09 04:07:44;;;;;;;4.80;2.15;;;;;;;22.11;49.40;100661.41;5028870;28;20094;-67
2021/06/09 04:10:13;;;;;;;8.52;3.03;;;;;;;22.17;48.93;100666.56;5028446;28;20122;-66
2021/06/09 04:12:40;;;;;;;6.75;2.72;;;;;;;22.05;49.81;100662.50;5028898;28;20120;-67
2021/06/09 04:15:11;;;;;;;8.90;3.58;;;;;;;22.09;50.68;100666.81;5029568;28;20045;-67
2021/06/09 04:17:40;;;;;;;6.53;3.10;;;;;;;22.14;50.51;100659.47;5028754;28;20042;-67
2021/06/09 04:20:08;;;;;;;7.35;3.05;;;;;;;22.39;50.63;100658.63;5028626;28;20048;-67
2021/06/09 04:22:37;;;;;;;8.52;3.20;;;;;;;22.67;50.67;100654.91;5028919;28;20109;-67
2021/06/09 04:25:08;;;;;;;5.78;2.90;;;;;;;22.95;50.38;100657.53;5027531;28;20057;-67
2021/06/09 04:27:39;;;;;;;6.30;2.90;;;;;;;23.29;50.26;100657.16;5030205;28;20045;-66
2021/06/09 04:30:07;;;;;;;8.13;2.42;;;;;;;23.64;49.78;100662.97;5032651;28;20382;-66
2021/06/09 04:32:49;;;;;;;7.25;3.05;;;;;;;23.83;50.36;100664.00;5012949;28;20121;-67
2021/06/09 04:35:17;;;;;;;6.75;3.10;;;;;;;23.79;51.00;100659.69;5012132;28;20049;-67
2021/06/09 04:37:44;;;;;;;8.60;3.40;;;;;;;23.66;52.03;100658.41;5012351;28;20034;-67
2021/06/09 04:40:19;;;;;;;6.78;3.22;;;;;;;23.61;52.85;100663.13;5012229;28;20115;-67
2021/06/09 04:42:48;;;;;;;6.43;2.97;;;;;;;23.56;53.77;100660.63;5009324;28;20532;-67
2021/06/09 04:45:16;;;;;;;7.85;3.00;;;;;;;24.07;54.31;100659.44;5012363;28;20121;-67
2021/06/09 04:47:44;;;;;;;5.75;3.03;;;;;;;24.75;53.63;100666.41;5011248;28;20120;-67
2021/06/09 04:50:12;;;;;;;6.00;3.25;;;;;;;25.26;53.16;100669.50;5012489;28;20753;-67
2021/06/09 04:52:40;;;;;;;7.43;3.20;;;;;;;25.62;52.85;100658.78;5010087;28;20053;-67
2021/06/09 04:55:08;;;;;;;8.00;3.05;;;;;;;25.91;52.63;100664.59;5012441;28;20497;-67
2021/06/09 04:57:37;;;;;;;8.98;3.00;;;;;;;26.11;52.26;100668.09;5012320;28;20057;-67
2021/06/09 05:00:07;;;;;;;8.10;3.47;;;;;;;26.20;52.52;100669.44;5031738;28;20132;-68
2021/06/09 05:02:34;;;;;;;9.20;2.58;;;;;;;26.70;51.76;100672.28;5030249;28;20065;-67
2021/06/09 05:05:01;;;;;;;5.93;2.90;;;;;;;27.17;51.03;100671.63;5030798;28;20108;-67
2021/06/09 05:07:28;;;;;;;5.88;2.58;;;;;;;27.27;50.63;100672.84;5031031;28;20056;-67
2021/06/09 05:09:56;;;;;;;5.78;2.47;;;;;;;27.52;50.33;100673.28;5031584;28;20038;-67
2021/06/09 05:12:27;;;;;;;7.78;3.35;;;;;;;27.66;49.69;100673.38;5030491;28;20112;-67
2021/06/09 05:15:01;;;;;;;6.18;2.88;;;;;;;27.91;49.31;100667.41;5030558;28;20052;-67
2021/06/09 05:17:31;;;;;;;8.63;2.70;;;;;;;27.30;50.62;100670.00;5030820;28;20029;-67
2021/06/09 05:19:59;;;;;;;9.63;2.95;;;;;;;27.37;50.57;100660.56;5029740;28;20038;-69
2021/06/09 05:22:33;;;;;;;7.65;2.90;;;;;;;28.32;48.38;100667.75;5031286;28;20367;-67
2021/06/09 05:25:04;;;;;;;6.22;2.53;;;;;;;28.06;48.93;100668.38;5030639;28;20787;-67
2021/06/09 05:27:32;;;;;;;8.57;2.38;;;;;;;28.67;47.51;100668.34;5031143;28;20045;-67
2021/06/09 05:30:02;;;;;;;6.70;1.90;;;;;;;29.05;46.36;100670.56;5031180;28;20120;-67
2021/06/09 05:32:31;;;;;;;5.43;2.38;;;;;;;28.07;47.33;100672.84;5032634;28;20054;-67
2021/06/09 05:34:58;;;;;;;9.52;2.30;;;;;;;27.32;48.63;100670.75;5031596;28;20034;-67
2021/06/09 05:37:26;;;;;;;8.05;2.80;;;;;;;27.23;48.69;100674.00;5030986;28;20057;-67
2021/06/09 05:39:58;;;;;;;6.72;2.60;;;;;;;28.11;47.38;100672.56;5031248;28;20040;-67
2021/06/09 05:42:26;;;;;;;5.63;1.90;;;;;;;29.23;45.39;100678.44;5030234;28;20064;-67
2021/06/09 05:44:54;;;;;;;5.13;2.00;;;;;;;30.00;43.99;100683.44;5030934;28;20032;-67
2021/06/09 05:47:23;;;;;;;11.20;2.15;;;;;;;30.49;43.03;100685.63;5031161;28;20056;-67
2021/06/09 05:50:08;;;;;;;7.68;2.35;;;;;;;30.79;42.49;100685.38;5030427;28;20553;-67
2021/06/09 05:52:35;;;;;;;6.70;2.03;;;;;;;30.98;42.00;100682.25;5030612;28;20046;-67
2021/06/09 05:55:04;;;;;;;6.90;2.08;;;;;;;31.06;41.62;100678.00;5031002;28;20132;-67
2021/06/09 05:57:31;;;;;;;7.50;2.47;;;;;;;31.12;41.30;100693.06;5030307;28;20037;-67
2021/06/09 05:59:58;;;;;;;8.65;2.83;;;;;;;31.35;41.16;100691.44;5028924;28;20501;-67
2021/06/09 06:02:30;;;;;;;6.40;1.90;;;;;;;30.70;41.83;100695.06;5028974;28;20030;-67
2021/06/09 06:05:02;;;;;;;7.75;2.35;;;;;;;30.76;41.52;100693.78;5028624;28;20125;-67
2021/06/09 06:07:30;;;;;;;7.95;2.25;;;;;;;31.05;41.09;100689.06;5029987;28;20044;-67
2021/06/09 06:09:58;;;;;;;5.43;2.15;;;;;;;30.76;41.42;100691.03;5030927;28;20033;-67
2021/06/09 06:12:27;;;;;;;7.18;1.98;;;;;;;29.60;43.16;100693.31;5029368;28;20046;-67
2021/06/09 06:14:55;;;;;;;6.38;2.45;;;;;;;29.62;43.30;100698.66;5029162;28;20498;-67
2021/06/09 06:17:21;;;;;;;7.15;2.20;;;;;;;29.54;43.61;100698.28;5029819;28;20037;-67
2021/06/09 06:19:51;;;;;;;7.00;2.38;;;;;;;29.55;43.58;100703.63;5030318;28;20401;-67
2021/06/09 06:22:19;;;;;;;4.55;2.03;;;;;;;29.96;42.65;100697.38;5030203;28;20076;-67
2021/06/09 06:24:48;;;;;;;5.38;2.03;;;;;;;30.61;41.78;100706.59;5029914;28;20519;-67
2021/06/09 06:27:16;;;;;;;5.00;1.90;;;;;;;31.27;40.57;100703.75;5030695;28;20053;-68
2021/06/09 06:29:45;;;;;;;8.13;2.03;;;;;;;30.92;41.04;100705.34;5030559;28;20046;-67
2021/06/09 06:32:14;;;;;;;5.95;2.13;;;;;;;30.51;41.84;100701.91;5029334;28;20069;-67
2021/06/09 06:34:43;;;;;;;7.75;2.17;;;;;;;31.11;40.67;100696.78;5030298;28;20113;-67
2021/06/09 06:37:12;;;;;;;4.68;1.80;;;;;;;31.50;39.94;100696.66;5030352;28;20038;-67
2021/06/09 06:39:40;;;;;;;5.82;1.90;;;;;;;30.77;41.04;100695.53;5029554;28;20540;-67
2021/06/09 06:42:09;;;;;;;9.65;2.13;;;;;;;29.76;42.64;100701.38;5030310;28;20072;-67
2021/06/09 06:44:39;;;;;;;8.35;2.65;;;;;;;30.05;42.31;100704.97;5029830;28;20120;-67
2021/06/09 06:47:06;;;;;;;7.18;2.22;;;;;;;30.35;42.33;100691.13;5027648;28;20080;-67
2021/06/09 06:49:34;;;;;;;3.63;1.90;;;;;;;30.46;42.37;100696.69;5029246;28;20121;-67
2021/06/09 06:52:01;;;;;;;6.03;2.13;;;;;;;30.61;41.84;100703.00;5034535;28;20050;-67
2021/06/09 06:54:31;;;;;;;5.28;1.95;;;;;;;30.63;41.80;100698.31;5029763;28;20620;-67
2021/06/09 06:56:59;;;;;;;5.03;2.15;;;;;;;31.22;41.17;100699.63;5029909;28;20034;-68
2021/06/09 06:59:27;;;;;;;6.57;2.03;;;;;;;30.84;42.20;100689.53;5029710;28;20037;-68
2021/06/09 07:01:55;;;;;;;6.22;1.95;;;;;;;31.32;41.55;100691.63;5029024;28;20068;-68
2021/06/09 07:04:23;;;;;;;6.63;2.00;;;;;;;31.73;40.96;100697.72;5029407;28;20069;-67
2021/06/09 07:06:51;;;;;;;8.90;2.38;;;;;;;32.12;40.14;100693.00;5029432;28;20601;-67
2021/06/09 07:09:19;;;;;;;8.20;2.22;;;;;;;31.65;40.66;100690.09;5011865;28;20044;-67
2021/06/09 07:11:49;;;;;;;8.15;2.05;;;;;;;31.85;40.80;100682.28;5025906;28;20180;-68
2021/06/09 07:14:16;;;;;;;6.30;2.38;;;;;;;31.86;40.30;100686.78;5027720;28;20044;-68
2021/06/09 07:16:45;;;;;;;6.38;1.70;;;;;;;32.22;39.84;100689.53;5029590;28;20468;-67
2021/06/09 07:19:14;;;;;;;6.57;1.95;;;;;;;32.34;39.51;100696.78;5026695;28;20107;-67
2021/06/09 07:21:42;;;;;;;9.02;2.88;;;;;;;32.19;39.34;100705.25;5025087;28;20041;-67
2021/06/09 07:24:10;;;;;;;6.55;2.05;;;;;;;31.44;40.41;100699.81;5025722;28;20124;-68
2021/06/09 07:26:42;;;;;;;6.40;2.65;;;;;;;31.68;40.61;100699.94;5027047;28;20045;-68
2021/06/09 07:29:12;;;;;;;9.10;2.53;;;;;;;31.93;39.92;100693.53;5027380;28;20037;-68
2021/06/09 07:31:43;;;;;;;4.15;2.17;;;;;;;31.51;40.68;100703.84;5028548;28;20033;-67
2021/06/09 07:34:11;;;;;;;5.15;2.38;;;;;;;31.55;40.49;100704.50;5028860;28;20059;-67
2021/06/09 07:36:46;;;;;;;8.02;2.88;;;;;;;31.51;40.82;100703.84;5029620;28;20066;-67
2021/06/09 07:39:22;;;;;;;8.30;2.35;;;;;;;31.95;40.29;100714.28;5029347;28;20049;-68
2021/06/09 07:41:51;;;;;;;5.50;2.00;;;;;;;32.28;39.80;100713.66;5028939;28;20033;-69
2021/06/09 07:44:21;;;;;;;5.80;2.45;;;;;;;31.99;39.72;100710.34;5025866;28;20171;-67
2021/06/09 07:46:51;;;;;;;5.70;2.53;;;;;;;31.46;40.43;100718.81;5029470;28;20037;-68
2021/06/09 07:49:20;;;;;;;5.63;2.42;;;;;;;31.12;40.49;100712.16;5029141;28;20056;-68
2021/06/09 07:51:49;;;;;;;4.03;2.42;;;;;;;30.94;40.81;100716.16;5029227;28;20499;-68
2021/06/09 07:54:18;;;;;;;7.53;2.63;;;;;;;30.60;41.20;100709.41;5026563;28;20117;-68
2021/06/09 07:56:46;;;;;;;8.95;3.58;;;;;;;31.00;40.71;100715.72;5027485;28;20724;-68
2021/06/09 07:59:14;;;;;;;9.93;2.95;;;;;;;30.96;40.58;100701.44;5028358;28;20042;-68
2021/06/09 08:01:45;;;;;;;7.40;2.95;;;;;;;30.58;41.60;100695.06;5028839;28;20042;-68
2021/06/09 08:04:13;;;;;;;6.30;2.35;;;;;;;30.57;42.09;100694.19;5033089;28;20128;-68
2021/06/09 08:06:43;;;;;;;7.72;2.55;;;;;;;30.79;41.98;100697.13;5032757;28;20119;-68
2021/06/09 08:09:10;;;;;;;7.32;2.17;;;;;;;31.41;41.76;100699.19;5033373;28;20041;-68
2021/06/09 08:11:38;;;;;;;7.78;2.53;;;;;;;31.60;41.37;100700.50;5016624;28;20038;-68
2021/06/09 08:14:08;;;;;;;9.85;2.15;;;;;;;31.84;41.06;100702.38;5033058;28;20056;-68
2021/06/09 08:16:36;;;;;;;4.53;2.00;;;;;;;32.11;40.17;100713.13;5017569;28;20030;-68
2021/06/09 08:19:08;;;;;;;7.07;2.10;;;;;;;32.63;39.45;100710.94;5013006;28;20406;-69
2021/06/09 08:21:36;;;;;;;7.85;2.50;;;;;;;32.67;39.30;100717.97;5032387;28;20057;-67
2021/06/09 08:24:05;;;;;;;5.15;2.67;;;;;;;32.09;40.40;100712.38;5032644;28;20037;-68
2021/06/09 08:26:32;;;;;;;7.65;2.30;;;;;;;31.85;40.73;100713.22;5032740;28;20549;-68
2021/06/09 08:28:59;;;;;;;11.80;2.45;;;;;;;32.22;40.46;100721.44;5033054;28;20397;-68
2021/06/09 08:31:29;;;;;;;4.47;2.40;;;;;;;32.36;40.35;100727.59;5032712;28;20111;-68
2021/06/09 08:33:58;;;;;;;6.03;2.10;;;;;;;32.31;40.41;100728.94;5032790;28;20042;-68
2021/06/09 08:36:27;;;;;;;8.57;3.00;;;;;;;32.50;39.71;100733.88;5032743;28;20120;-68
2021/06/09 08:38:56;;;;;;;6.80;2.75;;;;;;;32.22;39.51;100740.56;5031062;28;20626;-67
2021/06/09 08:41:27;;;;;;;5.82;2.42;;;;;;;32.36;39.13;100744.00;5030925;28;20068;-68
2021/06/09 08:43:56;;;;;;;8.13;2.30;;;;;;;32.16;39.49;100741.03;5032708;28;20069;-67
2021/06/09 08:46:23;;;;;;;5.55;2.58;;;;;;;32.27;38.92;100739.25;5032332;28;20041;-69
2021/06/09 08:48:50;;;;;;;5.50;2.53;;;;;;;32.32;38.90;100738.88;5031955;28;20040;-68
2021/06/09 08:51:18;;;;;;;4.60;2.63;;;;;;;32.29;39.24;100745.47;5032370;28;20039;-68
2021/06/09 08:53:49;;;;;;;5.57;2.42;;;;;;;32.00;39.85;100741.25;5032238;28;20125;-68
2021/06/09 08:56:18;;;;;;;7.85;2.25;;;;;;;31.97;40.01;100746.94;5032369;28;20048;-67
2021/06/09 08:58:45;;;;;;;7.15;2.70;;;;;;;32.21;39.60;100745.16;5032011;28;20060;-67
2021/06/09 09:01:14;;;;;;;5.05;2.55;;;;;;;32.09;39.33;100745.19;5032077;28;20432;-67
2021/06/09 09:03:44;;;;;;;8.80;2.40;;;;;;;32.21;38.57;100753.38;5031951;28;20037;-68
2021/06/09 09:06:11;;;;;;;5.13;1.98;;;;;;;32.36;39.11;100754.09;5031848;28;20045;-68
2021/06/09 09:08:39;;;;;;;5.32;2.58;;;;;;;32.37;39.10;100747.59;5032229;28;20045;-67
2021/06/09 09:11:07;;;;;;;5.32;2.40;;;;;;;32.46;38.97;100755.13;5028370;28;20073;-68
2021/06/09 09:13:35;;;;;;;7.15;2.75;;;;;;;32.82;38.96;100743.28;5031392;28;20124;-68
2021/06/09 09:16:02;;;;;;;7.03;2.67;;;;;;;33.04;38.34;100743.31;5031981;28;20128;-68
2021/06/09 09:18:41;;;;;;;8.35;2.33;;;;;;;33.00;38.13;100746.44;5031643;28;20121;-68
2021/06/09 09:21:09;;;;;;;6.45;2.13;;;;;;;32.99;38.24;100747.41;5012053;28;20041;-69
2021/06/09 09:23:37;;;;;;;9.50;1.95;;;;;;;32.97;38.51;100750.25;5012242;28;20119;-69
2021/06/09 09:26:25;;;;;;;6.75;2.38;;;;;;;33.07;38.41;100743.09;5030885;28;20083;-68
2021/06/09 09:29:09;;;;;;;9.52;2.50;;;;;;;33.23;38.15;100748.25;5011317;28;20041;-68
2021/06/09 09:31:50;;;;;;;5.32;2.30;;;;;;;33.13;37.79;100742.59;5031940;28;20436;-68
2021/06/09 09:34:40;;;;;;;4.75;2.25;;;;;;;33.12;38.18;100745.47;5031256;28;20041;-69
2021/06/09 09:37:13;;;;;;;5.95;2.25;;;;;;;33.42;37.79;100754.00;5031715;28;20037;-69
2021/06/09 09:39:43;;;;;;;7.03;2.63;;;;;;;33.47;37.27;100746.31;5031830;28;20044;-69
2021/06/09 09:42:22;;;;;;;6.18;2.25;;;;;;;33.20;37.59;100753.97;5030791;28;20132;-68
2021/06/09 09:44:50;;;;;;;6.90;2.08;;;;;;;33.37;37.38;100744.41;5031231;28;20041;-68
2021/06/09 09:47:19;;;;;;;6.50;2.75;;;;;;;33.44;36.95;100748.41;5031021;28;20708;-68
2021/06/09 09:49:48;;;;;;;6.07;2.22;;;;;;;33.35;36.73;100755.47;5029130;28;20124;-68
2021/06/09 09:52:15;;;;;;;10.77;2.42;;;;;;;33.31;36.83;100755.84;5029467;28;20120;-68
2021/06/09 09:54:45;;;;;;;8.77;2.50;;;;;;;33.24;36.76;100744.50;5025886;28;20125;-68
2021/06/09 09:57:14;;;;;;;6.38;2.35;;;;;;;32.97;37.23;100747.53;5025719;28;20405;-68
2021/06/09 09:59:55;;;;;;;6.30;2.63;;;;;;;33.03;37.19;100747.03;5023833;28;20049;-69
2021/06/09 10:02:22;;;;;;;6.72;2.67;;;;;;;33.10;37.23;100748.31;5023069;28;20042;-68
2021/06/09 10:05:09;;;;;;;5.63;2.50;;;;;;;33.00;37.18;100750.03;5020856;28;20052;-69
2021/06/09 10:07:38;;;;;;;8.93;2.65;;;;;;;32.14;38.54;100743.00;5019804;28;20037;-68
2021/06/09 10:10:07;;;;;;;5.43;2.40;;;;;;;31.69;38.98;100755.41;5021901;28;20053;-69
2021/06/09 10:12:34;;;;;;;5.32;2.72;;;;;;;31.48;38.74;100752.34;5027677;28;20117;-68
2021/06/09 10:15:03;;;;;;;5.82;2.35;;;;;;;31.87;38.28;100759.53;5029966;28;20050;-67
2021/06/09 10:17:33;;;;;;;7.50;2.90;;;;;;;31.81;38.19;100760.88;5026666;28;20540;-68
2021/06/09 10:20:06;;;;;;;5.35;2.85;;;;;;;31.92;37.79;100762.78;5025336;28;20540;-67
2021/06/09 10:22:36;;;;;;;9.38;2.88;;;;;;;32.47;37.57;100764.19;5023868;28;20042;-68
2021/06/09 10:25:07;;;;;;;5.15;2.30;;;;;;;32.86;37.79;100777.59;5018673;28;20498;-69
2021/06/09 10:27:36;;;;;;;8.25;2.30;;;;;;;33.19;37.34;100769.53;5028636;28;20520;-69
2021/06/09 10:30:22;;;;;;;7.85;2.78;;;;;;;33.21;38.00;100774.88;5014707;28;20524;-70
2021/06/09 10:32:51;;;;;;;6.88;2.67;;;;;;;32.62;38.92;100763.91;5027904;28;20037;-70
2021/06/09 10:35:21;;;;;;;10.18;3.03;;;;;;;31.92;40.59;100763.66;5027873;28;20120;-70
2021/06/09 10:37:49;;;;;;;8.00;2.72;;;;;;;32.16;40.04;100765.63;5029728;28;20047;-70
2021/06/09 10:40:18;;;;;;;8.95;3.20;;;;;;;32.45;40.08;100764.31;5019664;28;20120;-70
2021/06/09 10:42:48;;;;;;;8.27;3.22;;;;;;;32.67;39.46;100760.84;5012252;28;20137;-70
2021/06/09 10:45:18;;;;;;;4.53;2.80;;;;;;;32.65;39.43;100762.78;5026449;28;20033;-69
2021/06/09 10:47:47;;;;;;;6.78;3.08;;;;;;;32.31;40.39;100748.06;5018044;28;20509;-71
2021/06/09 10:50:16;;;;;;;7.45;3.50;;;;;;;32.13;41.00;100758.50;5029001;28;20037;-69
2021/06/09 10:52:44;;;;;;;6.00;3.30;;;;;;;32.12;40.58;100758.59;5027593;28;20049;-70
2021/06/09 10:55:12;;;;;;;5.50;3.08;;;;;;;32.23;40.35;100759.56;5028748;28;20068;-70
2021/06/09 10:57:39;;;;;;;6.45;3.63;;;;;;;31.76;41.55;100759.47;5011968;28;20097;-70
2021/06/09 11:00:08;;;;;;;6.75;3.28;;;;;;;31.80;41.59;100752.78;5027258;28;20047;-70
2021/06/09 11:02:37;;;;;;;5.40;3.55;;;;;;;31.95;41.54;100755.25;5029107;28;20041;-70
2021/06/09 11:05:07;;;;;;;6.95;3.65;;;;;;;32.17;41.25;100754.56;5028714;28;20042;-71
2021/06/09 11:07:37;;;;;;;9.63;3.75;;;;;;;32.26;40.95;100751.16;5023051;28;20057;-69
2021/06/09 11:10:07;;;;;;;6.45;3.70;;;;;;;32.74;40.11;100754.78;5020151;28;20049;-70
2021/06/09 11:12:39;;;;;;;7.90;3.95;;;;;;;33.06;40.01;100745.94;5014926;28;20560;-71
2021/06/09 11:15:10;;;;;;;7.53;3.78;;;;;;;33.15;38.72;100754.28;5020877;28;20050;-69
2021/06/09 11:17:53;;;;;;;8.93;4.07;;;;;;;33.22;38.70;100747.38;5002351;28;20054;-70
2021/06/09 11:20:23;;;;;;;10.98;4.60;;;;;;;33.58;38.43;100748.16;5023527;28;20041;-70
2021/06/09 11:22:52;;;;;;;7.50;4.45;;;;;;;33.87;38.01;100743.09;5013256;28;20038;-70
2021/06/09 11:25:24;;;;;;;8.35;4.35;;;;;;;33.85;37.83;100745.09;5022103;28;20461;-69
2021/06/09 11:27:54;;;;;;;9.40;4.90;;;;;;;33.20;38.95;100741.16;5024816;28;20038;-70
2021/06/09 11:30:43;;;;;;;7.30;4.25;;;;;;;32.78;39.67;100739.00;5011142;28;20120;-69
2021/06/09 11:33:30;;;;;;;6.18;4.35;;;;;;;32.40;40.03;100733.72;5010857;28;20576;-70
2021/06/09 11:35:58;;;;;;;9.00;4.50;;;;;;;32.38;39.70;100739.28;5009108;28;20180;-69
2021/06/09 11:38:27;;;;;;;9.32;4.53;;;;;;;32.34;39.51;100736.91;5014535;28;20196;-69